sensor_id;sensor_type;location;lat;lon;timestamp;pressure;altitude;pressure_sealevel;temperature;humidity
45255;BME280;30989;52.078;21.014;2022-11-20T00:01:26;162132.44;;;-6.19;96.93
45255;BME280;30989;52.078;21.014;2022-11-20T00:03:54;162137.72;;;-6.17;97.29
45255;BME280;30989;52.078;21.014;2022-11-20T00:06:21;162139.03;;;-6.17;96.90
45255;BME280;30989;52.078;21.014;2022-11-20T00:08:47;162131.09;;;-6.20;96.79
45255;BME280;30989;52.078;21.014;2022-11-20T00:11:15;162143.00;;;-6.15;96.95
45255;BME280;30989;52.078;21.014;2022-11-20T00:13:42;162123.16;;;-6.23;96.94
45255;BME280;30989;52.078;21.014;2022-11-20T00:16:09;162141.69;;;-6.15;97.06
45255;BME280;30989;52.078;21.014;2022-11-20T00:18:36;162144.34;;;-6.14;97.20
45255;BME280;30989;52.078;21.014;2022-11-20T00:21:07;162148.31;;;-6.13;97.38
45255;BME280;30989;52.078;21.014;2022-11-20T00:23:33;162150.97;;;-6.12;97.33
45255;BME280;30989;52.078;21.014;2022-11-20T00:26:03;162164.19;;;-6.07;97.89
45255;BME280;30989;52.078;21.014;2022-11-20T00:28:29;162160.22;;;-6.08;97.38
45255;BME280;30989;52.078;21.014;2022-11-20T00:31:15;162176.09;;;-6.02;97.79
45255;BME280;30989;52.078;21.014;2022-11-20T00:33:42;162181.41;;;-6.00;97.33
45255;BME280;30989;52.078;21.014;2022-11-20T00:36:10;162176.09;;;-6.02;97.49
45255;BME280;30989;52.078;21.014;2022-11-20T00:38:36;162182.72;;;-6.00;97.48
45255;BME280;30989;52.078;21.014;2022-11-20T00:41:05;162174.78;;;-6.03;97.12
45255;BME280;30989;52.078;21.014;2022-11-20T00:43:31;162184.03;;;-5.99;97.35
45255;BME280;30989;52.078;21.014;2022-11-20T00:46:01;162190.66;;;-5.97;97.54
45255;BME280;30989;52.078;21.014;2022-11-20T00:48:27;162188.00;;;-5.98;97.45
45255;BME280;30989;52.078;21.014;2022-11-20T00:50:53;162180.06;;;-6.01;97.41
45255;BME280;30989;52.078;21.014;2022-11-20T00:53:19;162186.69;;;-5.98;97.51
45255;BME280;30989;52.078;21.014;2022-11-20T00:55:55;162176.09;;;-6.02;97.75
45255;BME280;30989;52.078;21.014;2022-11-20T00:58:22;162181.41;;;-6.00;97.26
45255;BME280;30989;52.078;21.014;2022-11-20T01:00:48;162180.06;;;-6.01;97.50
45255;BME280;30989;52.078;21.014;2022-11-20T01:03:15;162186.69;;;-5.98;97.53
45255;BME280;30989;52.078;21.014;2022-11-20T01:05:41;162168.16;;;-6.05;97.34
45255;BME280;30989;52.078;21.014;2022-11-20T01:08:07;162174.78;;;-6.03;97.26
45255;BME280;30989;52.078;21.014;2022-11-20T01:10:32;162165.53;;;-6.06;97.18
45255;BME280;30989;52.078;21.014;2022-11-20T01:12:58;162131.09;;;-6.20;97.36
45255;BME280;30989;52.078;21.014;2022-11-20T01:15:42;162150.97;;;-6.12;97.54
45255;BME280;30989;52.078;21.014;2022-11-20T01:18:07;162146.97;;;-6.13;97.36
45255;BME280;30989;52.078;21.014;2022-11-20T01:20:36;162145.66;;;-6.14;97.58
45255;BME280;30989;52.078;21.014;2022-11-20T01:23:02;162128.47;;;-6.21;98.04
45255;BME280;30989;52.078;21.014;2022-11-20T01:25:28;162148.31;;;-6.13;98.49
45255;BME280;30989;52.078;21.014;2022-11-20T01:27:54;162152.28;;;-6.11;98.51
45255;BME280;30989;52.078;21.014;2022-11-20T01:30:19;162160.22;;;-6.08;98.86
45255;BME280;30989;52.078;21.014;2022-11-20T01:32:44;162158.91;;;-6.09;98.59
45255;BME280;30989;52.078;21.014;2022-11-20T01:35:10;162162.88;;;-6.07;98.29
45255;BME280;30989;52.078;21.014;2022-11-20T01:37:35;162166.84;;;-6.06;98.54
45255;BME280;30989;52.078;21.014;2022-11-20T01:40:01;162149.63;;;-6.12;98.96
45255;BME280;30989;52.078;21.014;2022-11-20T01:42:27;162173.47;;;-6.03;98.59
45255;BME280;30989;52.078;21.014;2022-11-20T01:45:48;162185.38;;;-5.99;98.56
45255;BME280;30989;52.078;21.014;2022-11-20T01:48:15;162194.63;;;-5.95;98.90
45255;BME280;30989;52.078;21.014;2022-11-20T01:50:42;162209.19;;;-5.90;98.29
45255;BME280;30989;52.078;21.014;2022-11-20T01:53:13;162214.44;;;-5.88;98.69
45255;BME280;30989;52.078;21.014;2022-11-20T01:55:45;162221.06;;;-5.85;98.72
45255;BME280;30989;52.078;21.014;2022-11-20T01:58:13;162234.28;;;-5.80;98.30
45255;BME280;30989;52.078;21.014;2022-11-20T02:00:40;162232.97;;;-5.80;98.46
45255;BME280;30989;52.078;21.014;2022-11-20T02:03:09;162239.59;;;-5.78;98.50
45255;BME280;30989;52.078;21.014;2022-11-20T02:05:41;162248.84;;;-5.74;98.81
45255;BME280;30989;52.078;21.014;2022-11-20T02:08:10;162254.16;;;-5.72;99.20
45255;BME280;30989;52.078;21.014;2022-11-20T02:10:39;162263.41;;;-5.69;99.07
45255;BME280;30989;52.078;21.014;2022-11-20T02:13:05;162270.03;;;-5.66;99.04
45255;BME280;30989;52.078;21.014;2022-11-20T02:15:49;162281.94;;;-5.62;99.14
45255;BME280;30989;52.078;21.014;2022-11-20T02:18:16;162289.88;;;-5.59;98.56
45255;BME280;30989;52.078;21.014;2022-11-20T02:20:45;162293.88;;;-5.57;98.62
45255;BME280;30989;52.078;21.014;2022-11-20T02:25:53;162284.59;;;-5.61;98.73
45255;BME280;30989;52.078;21.014;2022-11-20T02:28:20;162300.47;;;-5.55;98.34
45255;BME280;30989;52.078;21.014;2022-11-20T02:30:45;162293.88;;;-5.57;98.75
45255;BME280;30989;52.078;21.014;2022-11-20T02:33:11;162297.84;;;-5.56;99.13
45255;BME280;30989;52.078;21.014;2022-11-20T02:35:40;162297.84;;;-5.56;99.39
45255;BME280;30989;52.078;21.014;2022-11-20T02:38:07;162297.84;;;-5.56;99.54
45255;BME280;30989;52.078;21.014;2022-11-20T02:40:32;162300.47;;;-5.55;99.41
45255;BME280;30989;52.078;21.014;2022-11-20T02:42:58;162300.47;;;-5.55;99.24
45255;BME280;30989;52.078;21.014;2022-11-20T02:45:24;162292.53;;;-5.58;99.23
45255;BME280;30989;52.078;21.014;2022-11-20T02:47:50;162281.94;;;-5.62;99.13
45255;BME280;30989;52.078;21.014;2022-11-20T02:50:16;162293.88;;;-5.57;99.37
45255;BME280;30989;52.078;21.014;2022-11-20T02:52:41;162293.88;;;-5.57;99.27
45255;BME280;30989;52.078;21.014;2022-11-20T02:55:07;162274.00;;;-5.65;99.96
45255;BME280;30989;52.078;21.014;2022-11-20T02:57:32;162285.91;;;-5.60;99.41
45255;BME280;30989;52.078;21.014;2022-11-20T03:00:00;162284.59;;;-5.61;99.79
45255;BME280;30989;52.078;21.014;2022-11-20T03:02:30;162268.72;;;-5.67;99.93
45255;BME280;30989;52.078;21.014;2022-11-20T03:04:55;162262.09;;;-5.69;99.73
45255;BME280;30989;52.078;21.014;2022-11-20T03:07:20;162256.78;;;-5.71;99.34
45255;BME280;30989;52.078;21.014;2022-11-20T03:09:46;162246.22;;;-5.75;99.93
45255;BME280;30989;52.078;21.014;2022-11-20T03:12:12;162244.88;;;-5.76;100.00
45255;BME280;30989;52.078;21.014;2022-11-20T03:14:37;162239.59;;;-5.78;100.00
45255;BME280;30989;52.078;21.014;2022-11-20T03:17:02;162227.69;;;-5.82;100.00
45255;BME280;30989;52.078;21.014;2022-11-20T03:19:28;162215.75;;;-5.87;100.00
45255;BME280;30989;52.078;21.014;2022-11-20T03:21:53;162207.88;;;-5.90;100.00
45255;BME280;30989;52.078;21.014;2022-11-20T03:24:19;162193.31;;;-5.96;100.00
45255;BME280;30989;52.078;21.014;2022-11-20T03:26:44;162186.69;;;-5.98;100.00
45255;BME280;30989;52.078;21.014;2022-11-20T03:29:10;162178.75;;;-6.01;100.00
45255;BME280;30989;52.078;21.014;2022-11-20T03:31:38;162168.16;;;-6.05;100.00
45255;BME280;30989;52.078;21.014;2022-11-20T03:34:06;162154.94;;;-6.10;100.00
45255;BME280;30989;52.078;21.014;2022-11-20T03:36:33;162144.34;;;-6.14;100.00
45255;BME280;30989;52.078;21.014;2022-11-20T03:38:58;162131.09;;;-6.20;100.00
45255;BME280;30989;52.078;21.014;2022-11-20T03:41:26;162127.13;;;-6.21;100.00
45255;BME280;30989;52.078;21.014;2022-11-20T03:43:54;162117.88;;;-6.25;100.00
45255;BME280;30989;52.078;21.014;2022-11-20T03:46:20;162113.91;;;-6.26;100.00
45255;BME280;30989;52.078;21.014;2022-11-20T03:48:46;162088.75;;;-6.36;100.00
45255;BME280;30989;52.078;21.014;2022-11-20T03:51:14;162099.34;;;-6.32;100.00
45255;BME280;30989;52.078;21.014;2022-11-20T03:53:41;162078.19;;;-6.40;100.00
45255;BME280;30989;52.078;21.014;2022-11-20T03:56:07;162068.91;;;-6.43;100.00
45255;BME280;30989;52.078;21.014;2022-11-20T03:58:37;162062.31;;;-6.46;100.00
45255;BME280;30989;52.078;21.014;2022-11-20T04:01:07;162059.66;;;-6.47;100.00
45255;BME280;30989;52.078;21.014;2022-11-20T04:03:34;162051.72;;;-6.50;100.00
45255;BME280;30989;52.078;21.014;2022-11-20T04:06:10;162050.41;;;-6.51;100.00
45255;BME280;30989;52.078;21.014;2022-11-20T04:08:37;162041.13;;;-6.54;100.00
45255;BME280;30989;52.078;21.014;2022-11-20T04:11:23;162039.81;;;-6.55;100.00
45255;BME280;30989;52.078;21.014;2022-11-20T04:13:51;162037.16;;;-6.56;100.00
45255;BME280;30989;52.078;21.014;2022-11-20T04:16:18;162022.63;;;-6.61;100.00
45255;BME280;30989;52.078;21.014;2022-11-20T04:18:44;162009.38;;;-6.66;100.00
45255;BME280;30989;52.078;21.014;2022-11-20T04:21:10;161990.88;;;-6.73;100.00
45255;BME280;30989;52.078;21.014;2022-11-20T04:23:35;162009.38;;;-6.66;100.00
45255;BME280;30989;52.078;21.014;2022-11-20T04:26:06;162004.09;;;-6.68;100.00
45255;BME280;30989;52.078;21.014;2022-11-20T04:28:32;162004.09;;;-6.68;100.00
45255;BME280;30989;52.078;21.014;2022-11-20T04:31:05;161990.88;;;-6.73;100.00
45255;BME280;30989;52.078;21.014;2022-11-20T04:33:30;161978.97;;;-6.78;100.00
45255;BME280;30989;52.078;21.014;2022-11-20T04:36:00;161985.56;;;-6.75;100.00
45255;BME280;30989;52.078;21.014;2022-11-20T04:38:27;161982.94;;;-6.76;100.00
45255;BME280;30989;52.078;21.014;2022-11-20T04:40:56;161985.56;;;-6.75;100.00
45255;BME280;30989;52.078;21.014;2022-11-20T04:43:22;161964.41;;;-6.84;100.00
45255;BME280;30989;52.078;21.014;2022-11-20T04:45:55;161973.66;;;-6.80;100.00
45255;BME280;30989;52.078;21.014;2022-11-20T04:48:21;161971.03;;;-6.81;100.00
45255;BME280;30989;52.078;21.014;2022-11-20T04:50:46;161965.75;;;-6.83;100.00
45255;BME280;30989;52.078;21.014;2022-11-20T04:53:12;161965.75;;;-6.83;100.00
45255;BME280;30989;52.078;21.014;2022-11-20T04:55:37;161964.41;;;-6.84;100.00
45255;BME280;30989;52.078;21.014;2022-11-20T04:58:03;161969.69;;;-6.82;100.00
45255;BME280;30989;52.078;21.014;2022-11-20T05:00:28;161965.75;;;-6.83;100.00
45255;BME280;30989;52.078;21.014;2022-11-20T05:02:54;161951.19;;;-6.89;100.00
45255;BME280;30989;52.078;21.014;2022-11-20T05:05:19;161961.78;;;-6.85;100.00
45255;BME280;30989;52.078;21.014;2022-11-20T05:07:45;161959.13;;;-6.86;100.00
45255;BME280;30989;52.078;21.014;2022-11-20T05:10:10;161948.53;;;-6.90;100.00
45255;BME280;30989;52.078;21.014;2022-11-20T05:12:36;161928.72;;;-6.97;100.00
45255;BME280;30989;52.078;21.014;2022-11-20T05:15:01;161908.88;;;-7.05;100.00
45255;BME280;30989;52.078;21.014;2022-11-20T05:17:27;161947.22;;;-6.90;100.00
45255;BME280;30989;52.078;21.014;2022-11-20T05:19:52;161940.59;;;-6.93;100.00
45255;BME280;30989;52.078;21.014;2022-11-20T05:22:17;161916.81;;;-7.02;100.00
45255;BME280;30989;52.078;21.014;2022-11-20T05:24:43;161937.97;;;-6.94;100.00
45255;BME280;30989;52.078;21.014;2022-11-20T05:27:08;161911.50;;;-7.04;100.00
45255;BME280;30989;52.078;21.014;2022-11-20T05:29:34;161919.44;;;-7.01;100.00
45255;BME280;30989;52.078;21.014;2022-11-20T05:31:59;161922.09;;;-7.00;100.00
45255;BME280;30989;52.078;21.014;2022-11-20T05:34:25;161919.44;;;-7.01;100.00
45255;BME280;30989;52.078;21.014;2022-11-20T05:36:50;161915.47;;;-7.02;100.00
45255;BME280;30989;52.078;21.014;2022-11-20T05:39:16;161907.53;;;-7.05;100.00
45255;BME280;30989;52.078;21.014;2022-11-20T05:41:41;161898.28;;;-7.09;100.00
45255;BME280;30989;52.078;21.014;2022-11-20T05:44:07;161893.00;;;-7.11;100.00
45255;BME280;30989;52.078;21.014;2022-11-20T05:46:32;161894.31;;;-7.10;100.00
45255;BME280;30989;52.078;21.014;2022-11-20T05:48:58;161891.69;;;-7.11;100.00
45255;BME280;30989;52.078;21.014;2022-11-20T05:51:26;161886.38;;;-7.13;100.00
45255;BME280;30989;52.078;21.014;2022-11-20T05:53:52;161887.72;;;-7.13;100.00
45255;BME280;30989;52.078;21.014;2022-11-20T05:56:20;161883.75;;;-7.15;100.00
45255;BME280;30989;52.078;21.014;2022-11-20T05:58:46;161878.47;;;-7.17;100.00
45255;BME280;30989;52.078;21.014;2022-11-20T06:01:20;161877.13;;;-7.17;100.00
45255;BME280;30989;52.078;21.014;2022-11-20T06:03:47;161874.50;;;-7.18;100.00
45255;BME280;30989;52.078;21.014;2022-11-20T06:06:16;161870.53;;;-7.20;100.00
45255;BME280;30989;52.078;21.014;2022-11-20T06:08:43;161869.19;;;-7.20;100.00
45255;BME280;30989;52.078;21.014;2022-11-20T06:11:11;161869.19;;;-7.20;100.00
45255;BME280;30989;52.078;21.014;2022-11-20T06:13:37;161866.56;;;-7.21;100.00
45255;BME280;30989;52.078;21.014;2022-11-20T06:16:03;161854.66;;;-7.26;100.00
45255;BME280;30989;52.078;21.014;2022-11-20T06:18:29;161855.97;;;-7.25;100.00
45255;BME280;30989;52.078;21.014;2022-11-20T06:21:07;161858.63;;;-7.24;100.00
45255;BME280;30989;52.078;21.014;2022-11-20T06:23:34;161846.72;;;-7.29;100.00
45255;BME280;30989;52.078;21.014;2022-11-20T06:26:07;161855.97;;;-7.25;100.00
45255;BME280;30989;52.078;21.014;2022-11-20T06:28:34;161852.00;;;-7.27;100.00
45255;BME280;30989;52.078;21.014;2022-11-20T06:30:59;161857.31;;;-7.25;100.00
45255;BME280;30989;52.078;21.014;2022-11-20T06:33:25;161858.63;;;-7.24;100.00
45255;BME280;30989;52.078;21.014;2022-11-20T06:35:51;161858.63;;;-7.24;100.00
45255;BME280;30989;52.078;21.014;2022-11-20T06:38:16;161866.56;;;-7.21;100.00
45255;BME280;30989;52.078;21.014;2022-11-20T06:40:42;161867.88;;;-7.21;100.00
45255;BME280;30989;52.078;21.014;2022-11-20T06:43:09;161874.50;;;-7.18;100.00
45255;BME280;30989;52.078;21.014;2022-11-20T06:45:34;161874.50;;;-7.18;100.00
45255;BME280;30989;52.078;21.014;2022-11-20T06:48:00;161879.78;;;-7.16;100.00
45255;BME280;30989;52.078;21.014;2022-11-20T06:50:25;161887.72;;;-7.13;100.00
45255;BME280;30989;52.078;21.014;2022-11-20T06:52:51;161893.00;;;-7.11;100.00
45255;BME280;30989;52.078;21.014;2022-11-20T06:55:16;161867.88;;;-7.21;100.00
45255;BME280;30989;52.078;21.014;2022-11-20T06:57:42;161903.59;;;-7.07;100.00
45255;BME280;30989;52.078;21.014;2022-11-20T07:00:08;161902.25;;;-7.07;100.00
45255;BME280;30989;52.078;21.014;2022-11-20T07:02:34;161930.03;;;-6.97;100.00
45255;BME280;30989;52.078;21.014;2022-11-20T07:04:59;161951.19;;;-6.89;100.00
45255;BME280;30989;52.078;21.014;2022-11-20T07:07:25;161953.84;;;-6.88;100.00
45255;BME280;30989;52.078;21.014;2022-11-20T07:09:50;161959.13;;;-6.86;100.00
45255;BME280;30989;52.078;21.014;2022-11-20T07:12:16;161988.22;;;-6.74;100.00
45255;BME280;30989;52.078;21.014;2022-11-20T07:14:41;162002.78;;;-6.69;100.00
45255;BME280;30989;52.078;21.014;2022-11-20T07:17:07;162025.25;;;-6.60;100.00
45255;BME280;30989;52.078;21.014;2022-11-20T07:19:32;162049.06;;;-6.51;100.00
45255;BME280;30989;52.078;21.014;2022-11-20T07:21:57;162064.94;;;-6.45;100.00
45255;BME280;30989;52.078;21.014;2022-11-20T07:24:23;162094.06;;;-6.34;100.00
45255;BME280;30989;52.078;21.014;2022-11-20T07:26:48;162133.75;;;-6.19;100.00
45255;BME280;30989;52.078;21.014;2022-11-20T07:29:15;162203.91;;;-5.92;100.00
45255;BME280;30989;52.078;21.014;2022-11-20T07:31:40;162231.66;;;-5.81;100.00
45255;BME280;30989;52.078;21.014;2022-11-20T07:34:06;162263.41;;;-5.69;100.00
45255;BME280;30989;52.078;21.014;2022-11-20T07:36:31;162259.44;;;-5.70;100.00
45255;BME280;30989;52.078;21.014;2022-11-20T07:38:57;162281.94;;;-5.62;100.00
45255;BME280;30989;52.078;21.014;2022-11-20T07:41:22;162280.63;;;-5.62;100.00
45255;BME280;30989;52.078;21.014;2022-11-20T07:43:48;162293.88;;;-5.57;100.00
45255;BME280;30989;52.078;21.014;2022-11-20T07:46:13;162323.00;;;-5.46;100.00
45255;BME280;30989;52.078;21.014;2022-11-20T07:48:42;162337.56;;;-5.40;100.00
45255;BME280;30989;52.078;21.014;2022-11-20T07:51:07;162349.47;;;-5.36;100.00
45255;BME280;30989;52.078;21.014;2022-11-20T07:53:33;162370.66;;;-5.28;100.00
45255;BME280;30989;52.078;21.014;2022-11-20T07:56:02;162389.22;;;-5.21;100.00
45255;BME280;30989;52.078;21.014;2022-11-20T07:58:31;162406.47;;;-5.14;100.00
45255;BME280;30989;52.078;21.014;2022-11-20T08:01:02;162422.38;;;-5.08;100.00
45255;BME280;30989;52.078;21.014;2022-11-20T08:03:29;162429.00;;;-5.05;100.00
45255;BME280;30989;52.078;21.014;2022-11-20T08:05:58;162431.63;;;-5.04;100.00
45255;BME280;30989;52.078;21.014;2022-11-20T08:08:24;162438.25;;;-5.02;100.00
45255;BME280;30989;52.078;21.014;2022-11-20T08:10:49;162443.56;;;-5.00;100.00
45255;BME280;30989;52.078;21.014;2022-11-20T08:13:14;162451.50;;;-4.97;100.00
45255;BME280;30989;52.078;21.014;2022-11-20T08:15:58;162459.44;;;-4.94;100.00
45255;BME280;30989;52.078;21.014;2022-11-20T08:18:24;162483.28;;;-4.84;100.00
45255;BME280;30989;52.078;21.014;2022-11-20T08:20:49;162509.78;;;-4.74;100.00
45255;BME280;30989;52.078;21.014;2022-11-20T08:23:15;162517.75;;;-4.71;100.00
45255;BME280;30989;52.078;21.014;2022-11-20T08:25:40;162552.19;;;-4.58;100.00
45255;BME280;30989;52.078;21.014;2022-11-20T08:28:08;162564.13;;;-4.53;100.00
45255;BME280;30989;52.078;21.014;2022-11-20T08:30:34;162581.34;;;-4.47;100.00
45255;BME280;30989;52.078;21.014;2022-11-20T08:33:04;162603.88;;;-4.38;100.00
45255;BME280;30989;52.078;21.014;2022-11-20T08:35:33;162622.41;;;-4.31;100.00
45255;BME280;30989;52.078;21.014;2022-11-20T08:38:00;162651.59;;;-4.20;100.00
45255;BME280;30989;52.078;21.014;2022-11-20T08:40:25;162660.84;;;-4.16;100.00
45255;BME280;30989;52.078;21.014;2022-11-20T08:42:51;162690.03;;;-4.05;100.00
45255;BME280;30989;52.078;21.014;2022-11-20T08:45:18;162723.16;;;-3.93;100.00
45255;BME280;30989;52.078;21.014;2022-11-20T08:47:44;162729.78;;;-3.90;100.00
45255;BME280;30989;52.078;21.014;2022-11-20T08:50:11;162751.00;;;-3.82;100.00
45255;BME280;30989;52.078;21.014;2022-11-20T08:52:37;162778.84;;;-3.71;100.00
45255;BME280;30989;52.078;21.014;2022-11-20T08:55:04;162798.72;;;-3.64;100.00
45255;BME280;30989;52.078;21.014;2022-11-20T08:57:37;162814.66;;;-3.58;100.00
45255;BME280;30989;52.078;21.014;2022-11-20T09:00:06;162817.28;;;-3.57;100.00
45255;BME280;30989;52.078;21.014;2022-11-20T09:02:32;162830.56;;;-3.51;100.00
45255;BME280;30989;52.078;21.014;2022-11-20T09:04:58;162843.81;;;-3.46;100.00
45255;BME280;30989;52.078;21.014;2022-11-20T09:07:24;162859.72;;;-3.40;100.00
45255;BME280;30989;52.078;21.014;2022-11-20T09:09:49;162869.00;;;-3.37;100.00
45255;BME280;30989;52.078;21.014;2022-11-20T09:12:15;162898.19;;;-3.26;100.00
45255;BME280;30989;52.078;21.014;2022-11-20T09:14:40;162910.13;;;-3.21;100.00
45255;BME280;30989;52.078;21.014;2022-11-20T09:17:06;162936.66;;;-3.11;100.00
45255;BME280;30989;52.078;21.014;2022-11-20T09:19:33;162957.88;;;-3.03;100.00
45255;BME280;30989;52.078;21.014;2022-11-20T09:21:58;162968.50;;;-2.99;100.00
45255;BME280;30989;52.078;21.014;2022-11-20T09:24:25;162995.03;;;-2.88;100.00
45255;BME280;30989;52.078;21.014;2022-11-20T09:26:51;163012.28;;;-2.82;100.00
45255;BME280;30989;52.078;21.014;2022-11-20T09:29:17;163034.84;;;-2.73;100.00
45255;BME280;30989;52.078;21.014;2022-11-20T09:31:42;163061.38;;;-2.63;100.00
45255;BME280;30989;52.078;21.014;2022-11-20T09:34:07;163064.03;;;-2.62;100.00
45255;BME280;30989;52.078;21.014;2022-11-20T09:36:33;163097.22;;;-2.49;99.93
45255;BME280;30989;52.078;21.014;2022-11-20T09:38:59;163114.47;;;-2.43;100.00
45255;BME280;30989;52.078;21.014;2022-11-20T09:49:32;163194.09;;;-2.12;99.15
45255;BME280;30989;52.078;21.014;2022-11-20T09:52:26;163208.69;;;-2.07;98.79
45255;BME280;30989;52.078;21.014;2022-11-20T09:54:58;163215.34;;;-2.04;98.33
45255;BME280;30989;52.078;21.014;2022-11-20T09:57:35;163267.13;;;-1.84;98.87
45255;BME280;30989;52.078;21.014;2022-11-20T10:00:04;163297.66;;;-1.73;98.78
45255;BME280;30989;52.078;21.014;2022-11-20T10:05:51;163429.16;;;-1.22;97.66
45255;BME280;30989;52.078;21.014;2022-11-20T10:14:59;163899.78;;;0.57;94.81
45255;BME280;30989;52.078;21.014;2022-11-20T10:20:22;164114.00;;;1.39;92.87
45255;BME280;30989;52.078;21.014;2022-11-20T10:23:10;164304.38;;;2.12;91.58
45255;BME280;30989;52.078;21.014;2022-11-20T10:25:48;164485.53;;;2.81;87.75
45255;BME280;30989;52.078;21.014;2022-11-20T10:28:38;164634.78;;;3.38;87.88
45255;BME280;30989;52.078;21.014;2022-11-20T10:31:14;164777.44;;;3.92;83.11
45255;BME280;30989;52.078;21.014;2022-11-20T10:33:45;164864.13;;;4.25;84.47
45255;BME280;30989;52.078;21.014;2022-11-20T10:36:21;164956.16;;;4.60;85.28
45255;BME280;30989;52.078;21.014;2022-11-20T10:38:58;165048.22;;;4.95;83.38
45255;BME280;30989;52.078;21.014;2022-11-20T10:41:38;165167.03;;;5.40;84.14
45255;BME280;30989;52.078;21.014;2022-11-20T10:46:43;165394.06;;;6.27;80.46
45255;BME280;30989;52.078;21.014;2022-11-20T10:49:14;165434.16;;;6.42;80.23
45255;BME280;30989;52.078;21.014;2022-11-20T11:00:13;165573.09;;;6.95;75.04
45255;BME280;30989;52.078;21.014;2022-11-20T11:02:46;165591.78;;;7.02;74.14
45255;BME280;30989;52.078;21.014;2022-11-20T11:07:52;165585.09;;;6.99;74.37
45255;BME280;30989;52.078;21.014;2022-11-20T11:10:22;165566.41;;;6.92;70.34
45255;BME280;30989;52.078;21.014;2022-11-20T11:12:49;165514.28;;;6.72;71.27
45255;BME280;30989;52.078;21.014;2022-11-20T11:15:29;165533.00;;;6.79;73.15
45255;BME280;30989;52.078;21.014;2022-11-20T11:17:56;165569.06;;;6.93;72.63
45255;BME280;30989;52.078;21.014;2022-11-20T11:20:24;165558.38;;;6.89;70.45
45255;BME280;30989;52.078;21.014;2022-11-20T11:22:57;165582.44;;;6.98;71.74
45255;BME280;30989;52.078;21.014;2022-11-20T11:25:31;165587.78;;;7.00;70.95
45255;BME280;30989;52.078;21.014;2022-11-20T11:28:24;165573.09;;;6.95;71.04
45255;BME280;30989;52.078;21.014;2022-11-20T11:30:51;165541.00;;;6.83;68.72
45255;BME280;30989;52.078;21.014;2022-11-20T11:33:22;165455.50;;;6.50;69.05
45255;BME280;30989;52.078;21.014;2022-11-20T11:35:55;165404.75;;;6.31;69.65
45255;BME280;30989;52.078;21.014;2022-11-20T11:38:29;165346.00;;;6.08;70.40
45255;BME280;30989;52.078;21.014;2022-11-20T11:40:56;165297.94;;;5.90;70.56
45255;BME280;30989;52.078;21.014;2022-11-20T11:43:28;165269.84;;;5.79;70.77
45255;BME280;30989;52.078;21.014;2022-11-20T11:48:55;165022.88;;;4.85;70.51
45255;BME280;30989;52.078;21.014;2022-11-20T11:51:21;164924.16;;;4.48;70.44
45255;BME280;30989;52.078;21.014;2022-11-20T11:53:48;164818.78;;;4.08;71.18
45255;BME280;30989;52.078;21.014;2022-11-20T11:56:14;164721.44;;;3.71;72.40
45255;BME280;30989;52.078;21.014;2022-11-20T11:58:53;164645.47;;;3.42;72.98
45255;BME280;30989;52.078;21.014;2022-11-20T12:01:37;164529.50;;;2.98;72.35
45255;BME280;30989;52.078;21.014;2022-11-20T12:06:44;164321.69;;;2.18;74.54
45255;BME280;30989;52.078;21.014;2022-11-20T12:09:11;164231.16;;;1.84;75.46
45255;BME280;30989;52.078;21.014;2022-11-20T12:11:58;164175.25;;;1.63;76.13
45255;BME280;30989;52.078;21.014;2022-11-20T12:14:42;164110.00;;;1.38;75.63
45255;BME280;30989;52.078;21.014;2022-11-20T12:17:12;164047.47;;;1.14;76.32
45255;BME280;30989;52.078;21.014;2022-11-20T12:19:38;163979.59;;;0.88;77.17
45255;BME280;30989;52.078;21.014;2022-11-20T12:22:18;163947.66;;;0.76;78.05
45255;BME280;30989;52.078;21.014;2022-11-20T12:30:25;163858.53;;;0.42;79.37
45255;BME280;30989;52.078;21.014;2022-11-20T12:33:15;163846.56;;;0.37;79.74
45255;BME280;30989;52.078;21.014;2022-11-20T12:36:06;163819.97;;;0.27;79.88
45255;BME280;30989;52.078;21.014;2022-11-20T12:41:51;163778.75;;;0.11;80.66
45255;BME280;30989;52.078;21.014;2022-11-20T12:52:47;163752.16;;;0.01;82.19
45255;BME280;30989;52.078;21.014;2022-11-20T13:00:22;163742.81;;;-0.03;82.68
45255;BME280;30989;52.078;21.014;2022-11-20T13:08:19;163710.88;;;-0.15;83.17
45255;BME280;30989;52.078;21.014;2022-11-20T13:10:51;163700.25;;;-0.19;83.51
45255;BME280;30989;52.078;21.014;2022-11-20T13:13:50;163685.63;;;-0.24;84.19
45255;BME280;30989;52.078;21.014;2022-11-20T13:16:37;163681.66;;;-0.26;84.11
45255;BME280;30989;52.078;21.014;2022-11-20T13:19:05;163671.00;;;-0.30;84.07
45255;BME280;30989;52.078;21.014;2022-11-20T13:21:43;163676.31;;;-0.28;83.96
45255;BME280;30989;52.078;21.014;2022-11-20T13:27:46;163652.41;;;-0.37;84.60
45255;BME280;30989;52.078;21.014;2022-11-20T13:30:10;163637.78;;;-0.43;84.84
45255;BME280;30989;52.078;21.014;2022-11-20T13:32:48;163633.78;;;-0.44;85.38
45255;BME280;30989;52.078;21.014;2022-11-20T13:35:28;163623.16;;;-0.48;85.49
45255;BME280;30989;52.078;21.014;2022-11-20T13:38:06;163616.50;;;-0.51;85.49
45255;BME280;30989;52.078;21.014;2022-11-20T13:40:34;163585.94;;;-0.62;85.62
45255;BME280;30989;52.078;21.014;2022-11-20T13:43:02;163597.91;;;-0.58;85.62
45255;BME280;30989;52.078;21.014;2022-11-20T13:45:31;163589.94;;;-0.61;86.20
45255;BME280;30989;52.078;21.014;2022-11-20T13:48:03;163580.63;;;-0.65;86.43
45255;BME280;30989;52.078;21.014;2022-11-20T13:55:50;163550.06;;;-0.76;87.00
45255;BME280;30989;52.078;21.014;2022-11-20T14:01:23;163524.81;;;-0.86;87.73
45255;BME280;30989;52.078;21.014;2022-11-20T14:03:50;163499.56;;;-0.95;87.54
45255;BME280;30989;52.078;21.014;2022-11-20T14:06:28;163494.25;;;-0.98;87.73